Time;durP1;ratioP1;P1;durP2;ratioP2;P2;SDS_P1;SDS_P2;PMS_P1;PMS_P2;Temp;Humidity;BMP_temperature;BMP_pressure;BME280_temperature;BME280_humidity;BME280_pressure;Samples;Min_cycle;Max_cycle;Signal;HPM_P1;HPM_P2
2023/04/07 00:00:05;;;;;;;;;;;;;;;0.23;71.55;93077.22;5031816;28;19913;-39
2023/04/07 00:02:31;;;;;;;;;;;;;;;0.18;71.09;93083.38;5031569;28;19971;-39
2023/04/07 00:04:57;;;;;;;;;;;;;;;0.24;72.05;93090.28;5031477;28;19953;-39
2023/04/07 00:07:22;;;;;;;;;;;;;;;0.19;72.39;93087.59;5031795;28;19955;-39
2023/04/07 00:09:48;;;;;;;;;;;;;;;0.15;72.36;93089.81;5031720;28;20405;-39
2023/04/07 00:12:13;;;;;;;;;;;;;;;-0.19;73.73;93083.53;5031336;28;19925;-39
2023/04/07 00:14:38;;;;;;;;;;;;;;;-0.45;75.46;93091.06;5031694;28;19917;-39
2023/04/07 00:17:04;;;;;;;;;;;;;;;-0.40;74.40;93085.69;5031345;28;20436;-38
2023/04/07 00:19:29;;;;;;;;;;;;;;;-0.46;75.18;93087.63;5031234;28;19919;-39
2023/04/07 00:21:55;;;;;;;;;;;;;;;-0.42;75.36;93088.13;5031258;28;19913;-39
2023/04/07 00:24:20;;;;;;;;;;;;;;;-0.14;74.24;93085.53;5031540;28;19917;-39
2023/04/07 00:26:45;;;;;;;;;;;;;;;-0.32;74.24;93080.50;5030971;28;20368;-39
2023/04/07 00:29:10;;;;;;;;;;;;;;;-0.59;76.92;93090.03;5031122;28;19917;-39
2023/04/07 00:31:36;;;;;;;;;;;;;;;-0.63;76.26;93078.69;5030725;28;20389;-38
2023/04/07 00:34:01;;;;;;;;;;;;;;;-0.76;77.56;93078.38;5038614;28;19917;-39
2023/04/07 00:36:27;;;;;;;;;;;;;;;-0.84;79.44;93080.03;5051242;28;20419;-38
2023/04/07 00:38:52;;;;;;;;;;;;;;;-1.00;80.85;93083.41;5050878;28;19912;-38
2023/04/07 00:41:18;;;;;;;;;;;;;;;-1.13;80.77;93080.34;5036790;28;19992;-38
2023/04/07 00:43:44;;;;;;;;;;;;;;;-1.13;80.67;93081.09;5031205;28;19917;-39
2023/04/07 00:46:10;;;;;;;;;;;;;;;-1.13;81.82;93080.34;5031193;28;20019;-38
2023/04/07 00:48:35;;;;;;;;;;;;;;;-1.30;82.56;93074.81;5031200;28;20412;-38
2023/04/07 00:51:00;;;;;;;;;;;;;;;-1.28;82.78;93079.75;5046489;28;19983;-39
2023/04/07 00:53:26;;;;;;;;;;;;;;;-1.16;81.90;93082.06;5046477;28;19913;-39
2023/04/07 00:55:51;;;;;;;;;;;;;;;-1.37;82.84;93071.81;5030782;28;20400;-39
2023/04/07 00:58:16;;;;;;;;;;;;;;;-1.42;83.11;93077.91;5031145;28;19913;-39
2023/04/07 01:00:45;;;;;;;;;;;;;;;-1.36;82.97;93078.69;5030653;28;20463;-39
2023/04/07 01:03:21;;;;;;;;;;;;;;;-1.30;82.20;93071.38;5031037;28;19936;-39
2023/04/07 01:05:52;;;;;;;;;;;;;;;-1.40;83.57;93072.75;5046016;28;20317;-38
2023/04/07 01:08:23;;;;;;;;;;;;;;;-1.41;83.18;93072.03;5046339;28;19917;-38
2023/04/07 01:10:49;;;;;;;;;;;;;;;-1.14;81.59;93074.19;5046185;28;19920;-38
2023/04/07 01:13:23;;;;;;;;;;;;;;;-1.16;81.59;93070.47;5030639;28;19924;-38
2023/04/07 01:15:49;;;;;;;;;;;;;;;-1.31;83.05;93070.63;5045580;28;19917;-39
2023/04/07 01:18:16;;;;;;;;;;;;;;;-1.40;83.87;93065.38;5045665;28;19926;-38
2023/04/07 01:20:42;;;;;;;;;;;;;;;-1.36;82.74;93062.44;5045813;28;20000;-38
2023/04/07 01:23:07;;;;;;;;;;;;;;;-1.33;83.41;93066.91;5045200;28;20141;-38
2023/04/07 01:25:33;;;;;;;;;;;;;;;-1.39;83.45;93066.13;5045314;28;19947;-39
2023/04/07 01:28:01;;;;;;;;;;;;;;;-1.24;82.91;93062.06;5030444;28;19924;-39
2023/04/07 01:30:30;;;;;;;;;;;;;;;-1.30;82.45;93066.69;5030425;28;19920;-38
2023/04/07 01:32:57;;;;;;;;;;;;;;;-1.31;84.05;93059.78;5045363;28;19913;-39
2023/04/07 01:35:22;;;;;;;;;;;;;;;-1.50;83.76;93066.06;5048905;28;19939;-38
2023/04/07 01:37:48;;;;;;;;;;;;;;;-1.44;84.65;93067.56;5049909;28;20389;-39
2023/04/07 01:40:13;;;;;;;;;;;;;;;-1.45;83.45;93057.97;5044781;28;19963;-38
2023/04/07 01:42:38;;;;;;;;;;;;;;;-1.50;82.85;93061.38;5045579;28;19921;-38
2023/04/07 01:45:04;;;;;;;;;;;;;;;-1.50;83.79;93064.09;5045105;28;20030;-38
2023/04/07 01:47:29;;;;;;;;;;;;;;;-1.72;84.94;93064.66;5029875;28;19917;-39
2023/04/07 01:49:58;;;;;;;;;;;;;;;-1.83;86.03;93064.56;5045209;28;20678;-38
2023/04/07 01:52:26;;;;;;;;;;;;;;;-1.89;86.82;93065.72;5029500;28;19922;-38
2023/04/07 01:54:52;;;;;;;;;;;;;;;-2.00;86.66;93066.38;5029937;28;20015;-38
2023/04/07 01:57:17;;;;;;;;;;;;;;;-1.96;86.66;93061.47;5009824;28;20056;-38
2023/04/07 01:59:42;;;;;;;;;;;;;;;-1.95;87.07;93062.22;5009743;28;19924;-38
2023/04/07 02:02:08;;;;;;;;;;;;;;;-2.04;87.64;93060.44;5009613;28;19928;-39
2023/04/07 02:04:36;;;;;;;;;;;;;;;-2.19;88.92;93067.16;5009555;28;20440;-38
2023/04/07 02:07:03;;;;;;;;;;;;;;;-2.28;89.16;93064.59;5009884;28;19917;-38
2023/04/07 02:09:29;;;;;;;;;;;;;;;-2.32;89.34;93059.41;5024714;28;20381;-38
2023/04/07 02:11:55;;;;;;;;;;;;;;;-2.38;89.51;93064.72;5024607;28;20003;-39
2023/04/07 02:14:21;;;;;;;;;;;;;;;-2.32;88.81;93059.41;5024874;28;19985;-38
2023/04/07 02:16:46;;;;;;;;;;;;;;;-2.31;89.08;93067.03;5009634;28;19913;-38
2023/04/07 02:19:12;;;;;;;;;;;;;;;-2.26;89.02;93068.31;5009445;28;19913;-38
2023/04/07 02:21:37;;;;;;;;;;;;;;;-2.27;88.91;93058.69;5009575;28;19923;-38
2023/04/07 02:24:06;;;;;;;;;;;;;;;-2.29;88.60;93061.13;5043095;28;19952;-38
2023/04/07 02:26:32;;;;;;;;;;;;;;;-2.48;88.92;93055.28;5029090;28;19928;-38
2023/04/07 02:28:57;;;;;;;;;;;;;;;-2.38;89.32;93058.56;5029284;28;20007;-39
2023/04/07 02:31:23;;;;;;;;;;;;;;;-2.49;90.00;93059.19;5031655;28;20008;-38
2023/04/07 02:33:48;;;;;;;;;;;;;;;-2.42;90.06;93058.03;5048731;28;20333;-39
2023/04/07 02:36:13;;;;;;;;;;;;;;;-2.45;89.85;93067.13;5047794;28;19971;-39
2023/04/07 02:38:39;;;;;;;;;;;;;;;-2.25;89.59;93056.25;5049071;28;19916;-38
2023/04/07 02:41:05;;;;;;;;;;;;;;;-2.30;89.17;93067.78;5036469;28;19939;-39
2023/04/07 02:43:30;;;;;;;;;;;;;;;-2.47;90.38;93061.44;5028740;28;19924;-38
2023/04/07 02:45:55;;;;;;;;;;;;;;;-2.58;91.17;93061.31;5028757;28;19917;-38
2023/04/07 02:48:21;;;;;;;;;;;;;;;-2.66;91.84;93066.38;5028802;28;19939;-38
2023/04/07 02:50:46;;;;;;;;;;;;;;;-2.68;92.05;93060.69;5028686;28;19920;-38
2023/04/07 02:53:11;;;;;;;;;;;;;;;-2.70;92.70;93060.44;5028817;28;20004;-38
2023/04/07 02:55:37;;;;;;;;;;;;;;;-2.70;92.93;93067.78;5028549;28;20003;-38
2023/04/07 02:58:02;;;;;;;;;;;;;;;-2.59;92.31;93074.09;5028821;28;19913;-39
2023/04/07 03:00:27;;;;;;;;;;;;;;;-2.73;92.18;93066.06;5028628;28;19936;-38
2023/04/07 03:02:52;;;;;;;;;;;;;;;-2.75;92.08;93066.50;5028358;28;19921;-39
2023/04/07 03:05:18;;;;;;;;;;;;;;;-2.50;91.33;93068.53;5028733;28;19967;-38
2023/04/07 03:07:43;;;;;;;;;;;;;;;-2.63;90.92;93064.69;5028697;28;19917;-38
2023/04/07 03:10:09;;;;;;;;;;;;;;;-2.59;90.52;93076.03;5028560;28;19976;-39
2023/04/07 03:12:34;;;;;;;;;;;;;;;-2.84;91.65;93071.31;5028460;28;19913;-39
2023/04/07 03:14:59;;;;;;;;;;;;;;;-2.94;92.09;93067.22;5028806;28;20019;-38
2023/04/07 03:17:25;;;;;;;;;;;;;;;-2.99;92.30;93076.03;5028616;28;20012;-38
2023/04/07 03:19:50;;;;;;;;;;;;;;;-3.01;92.40;93068.38;5028493;28;19916;-38
2023/04/07 03:22:16;;;;;;;;;;;;;;;-2.90;91.86;93073.22;5028316;28;19917;-38
2023/04/07 03:24:41;;;;;;;;;;;;;;;-2.79;91.24;93063.28;5028499;28;19921;-39
2023/04/07 03:27:06;;;;;;;;;;;;;;;-2.76;90.01;93072.38;5028536;28;19948;-38
2023/04/07 03:29:32;;;;;;;;;;;;;;;-2.87;90.66;93066.84;5028628;28;20404;-38
2023/04/07 03:31:57;;;;;;;;;;;;;;;-2.77;91.57;93063.53;5027871;28;19914;-39
2023/04/07 03:34:22;;;;;;;;;;;;;;;-2.81;90.89;93065.69;5038922;28;19913;-39
2023/04/07 03:36:48;;;;;;;;;;;;;;;-2.65;90.38;93070.56;5048407;28;19971;-38
2023/04/07 03:39:13;;;;;;;;;;;;;;;-2.87;90.30;93064.16;5048396;28;20304;-39
2023/04/07 03:41:38;;;;;;;;;;;;;;;-2.89;90.96;93080.84;5031531;28;19913;-39
2023/04/07 03:44:04;;;;;;;;;;;;;;;-3.11;91.38;93070.47;5028198;28;19913;-38
2023/04/07 03:46:29;;;;;;;;;;;;;;;-3.31;92.26;93077.78;5029172;28;19925;-38
2023/04/07 03:48:55;;;;;;;;;;;;;;;-3.37;92.47;93079.66;5032134;28;19972;-38
2023/04/07 03:51:20;;;;;;;;;;;;;;;-3.48;92.90;93080.25;5031697;28;19917;-38
2023/04/07 03:53:46;;;;;;;;;;;;;;;-3.45;93.98;93092.81;5031752;28;19932;-38
2023/04/07 03:56:11;;;;;;;;;;;;;;;-3.26;93.67;93083.28;5032042;28;19924;-38
2023/04/07 03:58:37;;;;;;;;;;;;;;;-3.17;92.45;93083.16;5047094;28;19913;-38
2023/04/07 04:01:02;;;;;;;;;;;;;;;-3.21;91.87;93087.25;5047124;28;19928;-38
2023/04/07 04:03:28;;;;;;;;;;;;;;;-3.26;92.42;93096.78;5031877;28;19913;-39
2023/04/07 04:05:53;;;;;;;;;;;;;;;-3.19;92.13;93101.03;5031796;28;20381;-38
2023/04/07 04:08:19;;;;;;;;;;;;;;;-3.24;91.64;93099.75;5031534;28;20003;-39
2023/04/07 04:10:44;;;;;;;;;;;;;;;-3.17;90.84;93104.75;5031490;28;19913;-39
2023/04/07 04:13:10;;;;;;;;;;;;;;;-3.12;91.05;93098.69;5031557;28;19975;-38
2023/04/07 04:15:35;;;;;;;;;;;;;;;-3.04;91.91;93107.13;5031265;28;19975;-39
2023/04/07 04:18:00;;;;;;;;;;;;;;;-3.01;90.76;93100.06;5031303;28;19917;-38
2023/04/07 04:20:25;;;;;;;;;;;;;;;-3.18;91.21;93113.31;5031119;28;19944;-39
2023/04/07 04:22:51;;;;;;;;;;;;;;;-3.37;92.39;93112.78;5031136;28;20309;-39
2023/04/07 04:25:19;;;;;;;;;;;;;;;-3.19;92.62;93109.13;5031521;28;19917;-39
2023/04/07 04:27:45;;;;;;;;;;;;;;;-3.25;91.59;93113.72;5030919;28;19968;-39
2023/04/07 04:30:10;;;;;;;;;;;;;;;-3.26;92.47;93117.63;5031466;28;19975;-39
2023/04/07 04:32:35;;;;;;;;;;;;;;;-3.11;92.33;93123.72;5030736;28;19924;-38
2023/04/07 04:35:01;;;;;;;;;;;;;;;-2.98;91.45;93118.00;5046651;28;20409;-39
2023/04/07 04:37:26;;;;;;;;;;;;;;;-2.98;91.94;93120.72;5051046;28;19917;-39
2023/04/07 04:39:51;;;;;;;;;;;;;;;-3.09;91.50;93126.69;5048702;28;19916;-38
2023/04/07 04:42:17;;;;;;;;;;;;;;;-2.81;91.86;93117.03;5031018;28;19913;-39
2023/04/07 04:44:42;;;;;;;;;;;;;;;-2.55;91.84;93131.38;5030728;28;19913;-39
2023/04/07 04:47:07;;;;;;;;;;;;;;;-2.35;91.40;93119.81;5030783;28;19964;-39
2023/04/07 04:49:33;;;;;;;;;;;;;;;-2.00;90.26;93123.16;5030619;28;19924;-39
2023/04/07 04:51:58;;;;;;;;;;;;;;;-1.85;88.22;93129.22;5030794;28;19913;-39
2023/04/07 04:54:23;;;;;;;;;;;;;;;-1.77;87.68;93135.69;5030881;28;20333;-39
2023/04/07 04:56:49;;;;;;;;;;;;;;;-1.54;87.29;93131.25;5030571;28;20577;-39
2023/04/07 04:59:14;;;;;;;;;;;;;;;-1.36;86.87;93128.19;5029607;28;19913;-37
2023/04/07 05:01:39;;;;;;;;;;;;;;;-1.22;84.83;93140.88;5030486;28;19925;-39
2023/04/07 05:04:05;;;;;;;;;;;;;;;-1.30;84.49;93130.94;5030475;28;19913;-39
2023/04/07 05:06:30;;;;;;;;;;;;;;;-1.19;84.43;93134.47;5030620;28;19951;-39
2023/04/07 05:08:55;;;;;;;;;;;;;;;-1.05;84.07;93132.84;5030698;28;19957;-39
2023/04/07 05:11:21;;;;;;;;;;;;;;;-1.04;83.67;93124.25;5030332;28;19925;-39
2023/04/07 05:13:46;;;;;;;;;;;;;;;-0.90;83.32;93139.63;5030147;28;20004;-39
2023/04/07 05:16:11;;;;;;;;;;;;;;;-0.65;82.80;93135.34;5029957;28;19968;-39
2023/04/07 05:18:37;;;;;;;;;;;;;;;-0.52;82.95;93141.06;5030181;28;20389;-39
2023/04/07 05:21:02;;;;;;;;;;;;;;;-0.39;82.25;93135.97;5030104;28;19913;-39
2023/04/07 05:23:27;;;;;;;;;;;;;;;-0.37;82.61;93138.22;5030141;28;19913;-39
2023/04/07 05:25:52;;;;;;;;;;;;;;;-0.29;81.63;93137.25;5030324;28;19923;-39
2023/04/07 05:28:18;;;;;;;;;;;;;;;-0.22;81.07;93144.19;5030129;28;19919;-39
2023/04/07 05:30:43;;;;;;;;;;;;;;;0.03;80.61;93143.31;5029405;28;19917;-39
2023/04/07 05:33:08;;;;;;;;;;;;;;;-0.14;80.13;93153.34;5029686;28;20317;-39
2023/04/07 05:35:34;;;;;;;;;;;;;;;0.19;79.82;93150.78;5030100;28;19913;-39
2023/04/07 05:37:59;;;;;;;;;;;;;;;0.09;78.63;93140.63;5029445;28;19982;-39
2023/04/07 05:40:24;;;;;;;;;;;;;;;0.52;77.32;93150.09;5029477;28;19986;-39
2023/04/07 05:42:50;;;;;;;;;;;;;;;0.51;75.65;93149.34;5029292;28;20078;-39
2023/04/07 05:45:15;;;;;;;;;;;;;;;0.71;75.91;93145.69;5029679;28;19917;-39
2023/04/07 05:47:40;;;;;;;;;;;;;;;0.70;76.48;93144.94;5029651;28;20677;-39
2023/04/07 05:50:06;;;;;;;;;;;;;;;1.17;75.76;93135.03;5029471;28;19924;-39
2023/04/07 05:52:31;;;;;;;;;;;;;;;1.46;74.17;93141.94;5029422;28;19963;-39
2023/04/07 05:54:56;;;;;;;;;;;;;;;1.88;70.96;93138.88;5029193;28;19921;-39
2023/04/07 05:57:22;;;;;;;;;;;;;;;2.79;69.34;93144.84;5029392;28;20055;-39
2023/04/07 05:59:47;;;;;;;;;;;;;;;3.14;67.55;93143.34;5029088;28;20419;-39
2023/04/07 06:02:12;;;;;;;;;;;;;;;3.66;66.07;93138.44;5029212;28;19921;-39
2023/04/07 06:04:38;;;;;;;;;;;;;;;3.53;63.87;93132.84;5029172;28;20308;-39
2023/04/07 06:07:03;;;;;;;;;;;;;;;4.01;63.06;93134.81;5029678;28;20055;-40
2023/04/07 06:09:28;;;;;;;;;;;;;;;4.39;62.48;93134.38;5029332;28;19917;-40
2023/04/07 06:11:55;;;;;;;;;;;;;;;4.86;63.47;93128.50;5028917;28;20435;-39
2023/04/07 06:14:20;;;;;;;;;;;;;;;5.06;58.83;93136.16;5006307;28;19932;-39
2023/04/07 06:16:46;;;;;;;;;;;;;;;5.92;58.35;93137.22;5009168;28;20317;-40
2023/04/07 06:19:11;;;;;;;;;;;;;;;7.42;50.67;93126.56;5009503;28;19921;-40
2023/04/07 06:21:36;;;;;;;;;;;;;;;7.75;48.20;93130.50;5009368;28;19917;-39
2023/04/07 06:24:02;;;;;;;;;;;;;;;10.17;46.42;93134.06;5009049;28;20448;-39
2023/04/07 06:26:27;;;;;;;;;;;;;;;11.39;42.90;93130.34;5017296;28;19921;-39
2023/04/07 06:28:53;;;;;;;;;;;;;;;12.55;40.41;93127.59;5028112;28;19917;-38
2023/04/07 06:31:18;;;;;;;;;;;;;;;13.21;35.34;93124.63;5028105;28;19917;-38
2023/04/07 06:33:44;;;;;;;;;;;;;;;13.94;34.10;93128.25;5033499;28;19923;-39
2023/04/07 06:36:09;;;;;;;;;;;;;;;13.24;32.58;93131.06;5039494;28;19928;-39
2023/04/07 06:38:35;;;;;;;;;;;;;;;13.99;31.98;93130.00;5060530;28;19923;-39
2023/04/07 06:41:00;;;;;;;;;;;;;;;13.41;31.97;93145.63;5028666;28;19920;-39
2023/04/07 06:43:25;;;;;;;;;;;;;;;13.13;32.94;93137.84;5028916;28;19913;-39
2023/04/07 06:45:50;;;;;;;;;;;;;;;12.31;32.80;93147.75;5028415;28;20404;-39
2023/04/07 06:48:16;;;;;;;;;;;;;;;10.92;33.87;93149.72;5028935;28;19967;-39
2023/04/07 06:50:44;;;;;;;;;;;;;;;10.22;36.53;93155.22;5028881;28;19963;-39
2023/04/07 06:53:10;;;;;;;;;;;;;;;10.01;37.32;93152.63;5028741;28;19952;-39
2023/04/07 06:55:35;;;;;;;;;;;;;;;9.32;37.99;93161.38;5028565;28;20360;-39
2023/04/07 06:58:03;;;;;;;;;;;;;;;8.82;39.74;93160.84;5028506;28;19913;-39
2023/04/07 07:00:29;;;;;;;;;;;;;;;8.09;39.61;93163.34;5028734;28;19996;-39
2023/04/07 07:02:55;;;;;;;;;;;;;;;8.37;39.53;93155.88;5028391;28;19951;-39
2023/04/07 07:05:22;;;;;;;;;;;;;;;8.52;41.29;93157.94;5028320;28;19920;-39
2023/04/07 07:07:47;;;;;;;;;;;;;;;8.37;41.69;93158.63;5028218;28;19917;-39
2023/04/07 07:10:12;;;;;;;;;;;;;;;8.46;40.58;93159.38;5028643;28;19924;-39
2023/04/07 07:12:38;;;;;;;;;;;;;;;8.20;40.65;93157.56;5028462;28;19917;-39
2023/04/07 07:15:09;;;;;;;;;;;;;;;8.07;40.42;93165.91;5028535;28;19913;-39
2023/04/07 07:17:34;;;;;;;;;;;;;;;8.03;41.75;93173.75;5028491;28;20004;-39
2023/04/07 07:20:00;;;;;;;;;;;;;;;8.09;41.21;93168.84;5028460;28;20012;-39
2023/04/07 07:22:25;;;;;;;;;;;;;;;9.04;40.32;93162.97;5030855;28;20298;-39
2023/04/07 07:24:50;;;;;;;;;;;;;;;10.83;36.92;93166.88;5032111;28;19956;-39
2023/04/07 07:27:16;;;;;;;;;;;;;;;12.14;34.99;93170.59;5032319;28;19913;-39
2023/04/07 07:29:41;;;;;;;;;;;;;;;11.39;32.83;93169.75;5032048;28;20052;-39
2023/04/07 07:32:06;;;;;;;;;;;;;;;13.98;30.63;93161.84;5031366;28;19917;-39
2023/04/07 07:34:32;;;;;;;;;;;;;;;15.68;30.20;93166.78;5043600;28;19944;-39
2023/04/07 07:36:58;;;;;;;;;;;;;;;17.29;28.35;93155.41;5051941;28;19921;-40
2023/04/07 07:39:24;;;;;;;;;;;;;;;18.64;24.84;93155.50;5051821;28;19912;-40
2023/04/07 07:41:50;;;;;;;;;;;;;;;18.14;25.15;93159.47;5033677;28;19913;-40
2023/04/07 07:44:15;;;;;;;;;;;;;;;16.48;25.12;93164.00;5031945;28;19955;-40
2023/04/07 07:46:40;;;;;;;;;;;;;;;16.00;28.11;93160.69;5031779;28;19925;-39
2023/04/07 07:49:06;;;;;;;;;;;;;;;15.75;28.37;93174.97;5032192;28;19964;-39
2023/04/07 07:51:31;;;;;;;;;;;;;;;16.09;25.60;93167.56;5031492;28;19917;-40
2023/04/07 07:53:56;;;;;;;;;;;;;;;16.01;26.10;93178.13;5031961;28;19913;-39
2023/04/07 07:56:22;;;;;;;;;;;;;;;16.28;25.98;93173.78;5043832;28;19920;-39
2023/04/07 07:58:48;;;;;;;;;;;;;;;17.84;25.87;93179.19;5051943;28;19923;-39
2023/04/07 08:01:13;;;;;;;;;;;;;;;15.12;26.15;93169.72;5051235;28;20452;-39
2023/04/07 08:03:38;;;;;;;;;;;;;;;16.72;25.98;93170.50;5046183;28;19928;-40
2023/04/07 08:06:04;;;;;;;;;;;;;;;17.79;25.39;93174.69;5031418;28;19924;-40
2023/04/07 08:08:30;;;;;;;;;;;;;;;15.81;27.35;93186.53;5031858;28;19999;-40
2023/04/07 08:10:55;;;;;;;;;;;;;;;15.89;26.85;93175.25;5031500;28;20373;-39
2023/04/07 08:13:20;;;;;;;;;;;;;;;17.09;24.96;93177.16;5031398;28;19913;-39
2023/04/07 08:15:45;;;;;;;;;;;;;;;17.18;25.46;93175.63;5031283;28;19916;-40
2023/04/07 08:18:11;;;;;;;;;;;;;;;17.26;25.20;93179.66;5031596;28;19921;-40
2023/04/07 08:20:36;;;;;;;;;;;;;;;17.75;26.81;93171.63;5029869;28;20404;-39
2023/04/07 08:23:02;;;;;;;;;;;;;;;17.89;25.34;93176.03;5031392;28;19924;-40
2023/04/07 08:25:27;;;;;;;;;;;;;;;16.68;26.05;93173.00;5030820;28;20440;-39
2023/04/07 08:27:53;;;;;;;;;;;;;;;15.12;27.26;93186.41;5030946;28;20389;-39
2023/04/07 08:30:19;;;;;;;;;;;;;;;14.99;27.73;93178.50;5031259;28;19917;-39
2023/04/07 08:32:45;;;;;;;;;;;;;;;16.02;27.01;93176.81;5030310;28;19917;-39
2023/04/07 08:35:10;;;;;;;;;;;;;;;15.86;27.04;93173.63;5047689;28;19966;-39
2023/04/07 08:37:36;;;;;;;;;;;;;;;14.67;28.34;93173.34;5050983;28;19927;-39
2023/04/07 08:40:02;;;;;;;;;;;;;;;13.99;30.03;93176.47;5047532;28;20385;-39
2023/04/07 08:42:28;;;;;;;;;;;;;;;12.37;32.17;93195.31;5030609;28;19960;-39
2023/04/07 08:45:00;;;;;;;;;;;;;;;11.58;33.20;93180.38;5030540;28;19971;-39
2023/04/07 08:47:28;;;;;;;;;;;;;;;10.94;35.30;93175.47;5030779;28;20489;-39
2023/04/07 08:49:54;;;;;;;;;;;;;;;11.49;34.69;93186.50;5045749;28;19917;-39
2023/04/07 08:52:23;;;;;;;;;;;;;;;11.33;35.43;93179.56;5045821;28;20007;-39
2023/04/07 08:54:48;;;;;;;;;;;;;;;10.67;35.36;93188.28;5030608;28;19924;-39
2023/04/07 08:57:13;;;;;;;;;;;;;;;10.48;37.20;93187.94;5045750;28;19939;-39
2023/04/07 08:59:43;;;;;;;;;;;;;;;11.05;36.54;93185.38;5045819;28;19923;-39
2023/04/07 09:02:08;;;;;;;;;;;;;;;10.51;35.00;93189.59;5030080;28;19933;-39
2023/04/07 09:04:37;;;;;;;;;;;;;;;11.01;34.78;93196.09;5045641;28;19917;-39
2023/04/07 09:07:02;;;;;;;;;;;;;;;10.90;35.19;93193.72;5030301;28;19925;-39
2023/04/07 09:09:28;;;;;;;;;;;;;;;11.28;36.15;93188.81;5030585;28;19917;-39
2023/04/07 09:11:53;;;;;;;;;;;;;;;11.52;35.54;93188.13;5030159;28;19924;-39
2023/04/07 09:14:19;;;;;;;;;;;;;;;12.44;32.80;93189.72;5030179;28;19924;-39
2023/04/07 09:16:45;;;;;;;;;;;;;;;12.37;34.69;93178.69;5030370;28;19920;-39
2023/04/07 09:19:10;;;;;;;;;;;;;;;12.06;33.66;93203.13;5030087;28;20317;-39
2023/04/07 09:21:51;;;;;;;;;;;;;;;11.82;33.34;93195.56;5030147;28;19913;-39
2023/04/07 09:24:26;;;;;;;;;;;;;;;11.30;35.78;93191.75;5030418;28;19924;-39
2023/04/07 09:27:08;;;;;;;;;;;;;;;10.19;36.78;93187.41;5030001;28;19944;-39
2023/04/07 09:29:36;;;;;;;;;;;;;;;10.61;35.93;93188.47;5029752;28;19920;-39
2023/04/07 09:32:01;;;;;;;;;;;;;;;11.18;35.80;93191.41;5029584;28;20375;-39
2023/04/07 09:34:30;;;;;;;;;;;;;;;11.02;34.91;93183.75;5041087;28;20012;-39
2023/04/07 09:37:01;;;;;;;;;;;;;;;10.75;34.87;93191.75;5049845;28;19920;-39
2023/04/07 09:39:27;;;;;;;;;;;;;;;10.40;36.10;93184.44;5049293;28;19919;-39
2023/04/07 09:41:52;;;;;;;;;;;;;;;10.62;38.36;93187.19;5030874;28;19913;-39
2023/04/07 09:44:21;;;;;;;;;;;;;;;11.65;36.99;93187.88;5029403;28;19924;-39
2023/04/07 09:46:58;;;;;;;;;;;;;;;12.04;34.21;93183.59;5029809;28;19971;-39
2023/04/07 09:49:24;;;;;;;;;;;;;;;12.50;32.29;93181.91;5029749;28;19948;-39
2023/04/07 09:51:55;;;;;;;;;;;;;;;12.55;33.04;93174.66;5029279;28;19917;-39
2023/04/07 09:54:36;;;;;;;;;;;;;;;12.28;33.14;93169.00;5029790;28;20013;-39
2023/04/07 09:57:02;;;;;;;;;;;;;;;11.95;34.95;93184.94;5029128;28;20015;-39
2023/04/07 09:59:28;;;;;;;;;;;;;;;11.66;33.91;93185.84;5029671;28;20005;-39
2023/04/07 10:01:53;;;;;;;;;;;;;;;11.10;34.72;93181.69;5029066;28;20517;-39
2023/04/07 10:04:19;;;;;;;;;;;;;;;10.93;35.92;93189.88;5044389;28;19916;-39
2023/04/07 10:06:45;;;;;;;;;;;;;;;10.71;34.57;93196.91;5028388;28;20440;-39
2023/04/07 10:09:10;;;;;;;;;;;;;;;10.94;34.48;93188.56;5028618;28;20741;-39
2023/04/07 10:11:36;;;;;;;;;;;;;;;11.24;34.41;93191.22;5013928;28;19959;-39
2023/04/07 10:14:01;;;;;;;;;;;;;;;11.11;35.67;93188.69;5028675;28;19927;-39
2023/04/07 10:16:27;;;;;;;;;;;;;;;11.32;33.42;93183.63;5028522;28;19921;-39
2023/04/07 10:18:52;;;;;;;;;;;;;;;11.57;34.67;93186.44;5028512;28;19913;-39
2023/04/07 10:21:17;;;;;;;;;;;;;;;11.72;35.72;93184.34;5027741;28;20469;-39
2023/04/07 10:23:46;;;;;;;;;;;;;;;12.78;33.92;93175.16;5028908;28;19932;-39
2023/04/07 10:26:11;;;;;;;;;;;;;;;12.92;33.80;93179.84;5028937;28;19925;-39
2023/04/07 10:28:37;;;;;;;;;;;;;;;13.54;32.35;93184.09;5029098;28;19967;-39
2023/04/07 10:31:03;;;;;;;;;;;;;;;14.21;30.45;93178.88;5044218;28;19971;-39
2023/04/07 10:33:47;;;;;;;;;;;;;;;14.64;30.06;93180.06;5064189;28;20359;-39
2023/04/07 10:36:12;;;;;;;;;;;;;;;14.97;29.74;93178.34;5048633;28;19947;-39
2023/04/07 10:38:37;;;;;;;;;;;;;;;13.75;28.86;93182.91;5030692;28;19918;-39
2023/04/07 10:41:21;;;;;;;;;;;;;;;13.88;30.68;93185.31;5028655;28;19913;-39
2023/04/07 10:43:47;;;;;;;;;;;;;;;13.94;30.30;93178.19;5028668;28;19975;-39
2023/04/07 10:46:12;;;;;;;;;;;;;;;13.59;30.63;93190.72;5028523;28;19952;-39
2023/04/07 10:48:37;;;;;;;;;;;;;;;13.26;31.61;93187.41;5028893;28;19913;-39
2023/04/07 10:51:07;;;;;;;;;;;;;;;12.89;34.54;93189.28;5028730;28;19920;-39
2023/04/07 10:53:35;;;;;;;;;;;;;;;13.53;32.25;93190.97;5028496;28;19920;-39
2023/04/07 10:56:01;;;;;;;;;;;;;;;13.52;32.24;93195.03;5037940;28;19913;-39
2023/04/07 10:58:29;;;;;;;;;;;;;;;13.83;31.07;93195.38;5052925;28;19913;-39
2023/04/07 11:01:13;;;;;;;;;;;;;;;12.96;34.79;93196.03;5052503;28;19925;-39
2023/04/07 11:03:51;;;;;;;;;;;;;;;13.02;31.59;93195.78;5052502;28;19967;-39
2023/04/07 11:06:16;;;;;;;;;;;;;;;13.02;30.91;93202.06;5052576;28;20431;-39
2023/04/07 11:08:42;;;;;;;;;;;;;;;13.26;32.21;93206.81;5052821;28;19955;-39
2023/04/07 11:11:08;;;;;;;;;;;;;;;12.96;32.86;93204.34;5052777;28;19962;-39
2023/04/07 11:13:46;;;;;;;;;;;;;;;13.13;32.10;93206.41;5052661;28;20367;-39
2023/04/07 11:16:12;;;;;;;;;;;;;;;12.95;32.43;93216.72;5044640;28;20413;-39
2023/04/07 11:18:37;;;;;;;;;;;;;;;12.49;31.97;93210.16;5032592;28;19964;-39
2023/04/07 11:21:05;;;;;;;;;;;;;;;12.07;33.67;93207.34;5032623;28;19913;-39
2023/04/07 11:23:40;;;;;;;;;;;;;;;12.27;34.10;93220.13;5032468;28;20452;-39
2023/04/07 11:26:07;;;;;;;;;;;;;;;11.72;34.64;93209.25;5032505;28;19924;-39
2023/04/07 11:28:32;;;;;;;;;;;;;;;11.41;34.26;93213.44;5032229;28;19951;-39
2023/04/07 11:30:58;;;;;;;;;;;;;;;11.11;35.92;93211.53;5032231;28;19917;-39
2023/04/07 11:33:29;;;;;;;;;;;;;;;11.25;34.91;93218.28;5034326;28;19999;-39
2023/04/07 11:35:55;;;;;;;;;;;;;;;10.92;35.18;93216.75;5052393;28;19923;-39
2023/04/07 11:38:26;;;;;;;;;;;;;;;10.63;35.11;93218.28;5052071;28;19920;-39
2023/04/07 11:40:51;;;;;;;;;;;;;;;10.21;35.82;93209.66;5042028;28;19917;-39
2023/04/07 11:43:19;;;;;;;;;;;;;;;10.30;36.21;93205.63;5031991;28;20462;-39
2023/04/07 11:45:45;;;;;;;;;;;;;;;10.36;37.92;93204.13;5031923;28;20423;-39
2023/04/07 11:48:29;;;;;;;;;;;;;;;10.49;35.90;93209.47;5031783;28;19913;-39
2023/04/07 11:50:54;;;;;;;;;;;;;;;10.34;37.72;93219.78;5032027;28;19944;-39
2023/04/07 11:53:27;;;;;;;;;;;;;;;10.56;35.13;93208.72;5031809;28;20393;-39
2023/04/07 11:56:15;;;;;;;;;;;;;;;10.59;36.96;93209.63;5040148;28;19913;-39
2023/04/07 11:58:50;;;;;;;;;;;;;;;10.20;37.75;93205.44;5043833;28;19917;-39
2023/04/07 12:01:15;;;;;;;;;;;;;;;10.02;38.02;93203.00;5031838;28;20015;-39
2023/04/07 12:04:15;;;;;;;;;;;;;;;9.93;37.04;93209.81;5047091;28;20389;-39
2023/04/07 12:06:41;;;;;;;;;;;;;;;10.26;38.35;93205.25;5008966;28;19921;-39
2023/04/07 12:09:07;;;;;;;;;;;;;;;10.66;37.66;93204.09;5030940;28;20336;-39
2023/04/07 12:11:33;;;;;;;;;;;;;;;10.68;38.02;93195.25;5031576;28;19913;-39
2023/04/07 12:13:58;;;;;;;;;;;;;;;11.26;37.18;93185.88;5031621;28;19914;-39
2023/04/07 12:16:24;;;;;;;;;;;;;;;11.32;35.85;93189.16;5031933;28;19920;-39
2023/04/07 12:18:52;;;;;;;;;;;;;;;11.25;37.04;93190.66;5031435;28;19932;-39
2023/04/07 12:21:18;;;;;;;;;;;;;;;11.11;38.93;93200.47;5031818;28;19913;-39
2023/04/07 12:23:44;;;;;;;;;;;;;;;11.07;36.40;93196.63;5031390;28;19940;-39
2023/04/07 12:26:10;;;;;;;;;;;;;;;10.73;38.91;93204.63;5031248;28;19921;-39
2023/04/07 12:28:36;;;;;;;;;;;;;;;10.63;37.78;93212.78;5031164;28;19987;-39
2023/04/07 12:31:02;;;;;;;;;;;;;;;10.80;38.29;93203.88;5030886;28;19933;-39
2023/04/07 12:33:27;;;;;;;;;;;;;;;11.01;37.37;93207.88;5017167;28;19916;-39
2023/04/07 12:35:52;;;;;;;;;;;;;;;10.85;35.49;93203.69;5051256;28;19970;-39
2023/04/07 12:38:18;;;;;;;;;;;;;;;10.51;38.58;93193.09;5051149;28;20351;-39
2023/04/07 12:40:43;;;;;;;;;;;;;;;10.54;37.78;93200.25;5042157;28;19913;-39
2023/04/07 12:43:08;;;;;;;;;;;;;;;10.62;37.32;93208.53;5030980;28;19959;-39